createdAt,value
2022-11-25T00:00:27.418Z,74.28
2022-11-25T00:01:32.072Z,75.10
2022-11-25T00:02:34.864Z,66.45
2022-11-25T00:03:38.599Z,76.82
2022-11-25T00:04:41.346Z,65.18
2022-11-25T00:05:44.034Z,69.22
2022-11-25T00:06:46.751Z,76.63
2022-11-25T00:07:49.479Z,65.93
2022-11-25T00:08:54.874Z,65.03
2022-11-25T00:09:57.674Z,71.60
2022-11-25T00:11:03.456Z,75.30
2022-11-25T00:12:06.235Z,71.50
2022-11-25T00:13:08.857Z,81.60
2022-11-25T00:14:14.265Z,70.15
2022-11-25T00:15:16.911Z,70.32
2022-11-25T00:16:21.648Z,82.25
2022-11-25T00:17:24.322Z,75.78
2022-11-25T00:18:27.007Z,70.45
2022-11-25T00:19:29.751Z,79.10
2022-11-25T00:20:32.390Z,77.25
2022-11-25T00:21:35.192Z,72.22
2022-11-25T00:22:37.805Z,75.53
2022-11-25T00:23:40.804Z,70.00
2022-11-25T00:24:43.592Z,67.55
2022-11-25T00:25:46.289Z,75.30
2022-11-25T00:26:48.912Z,76.47
2022-11-25T00:27:53.302Z,80.15
2022-11-25T00:28:58.803Z,75.35
2022-11-25T00:30:01.629Z,68.20
2022-11-25T00:31:09.620Z,77.00
2022-11-25T00:32:12.363Z,76.10
2022-11-25T00:33:15.264Z,72.57
2022-11-25T00:34:17.935Z,82.20
2022-11-25T00:35:21.412Z,70.43
2022-11-25T00:36:30.966Z,74.88
2022-11-25T00:37:33.671Z,74.82
2022-11-25T00:38:36.528Z,79.72
2022-11-25T00:39:39.268Z,69.20
2022-11-25T00:40:42.006Z,69.25
2022-11-25T00:42:04.973Z,80.15
2022-11-25T00:43:27.643Z,77.75
2022-11-25T00:44:36.459Z,74.20
2022-11-25T00:45:39.563Z,82.18
2022-11-25T00:46:42.684Z,77.40
2022-11-25T00:47:45.319Z,83.20
2022-11-25T00:48:48.025Z,77.43
2022-11-25T00:49:53.461Z,83.13
2022-11-25T00:50:56.309Z,91.00
2022-11-25T00:51:59.144Z,91.88
2022-11-25T00:53:01.770Z,87.95
2022-11-25T00:54:04.657Z,80.70
2022-11-25T00:55:07.762Z,87.40
2022-11-25T00:56:13.314Z,81.30
2022-11-25T00:57:17.894Z,82.63
2022-11-25T00:58:21.635Z,76.90
2022-11-25T00:59:24.352Z,82.90
2022-11-25T01:00:27.055Z,86.00
2022-11-25T01:01:29.891Z,88.25
2022-11-25T01:02:32.583Z,72.82
2022-11-25T01:03:37.186Z,69.80
2022-11-25T01:04:40.121Z,85.05
2022-11-25T01:05:42.717Z,89.47
2022-11-25T01:06:45.345Z,84.10
2022-11-25T01:07:51.003Z,76.38
2022-11-25T01:08:54.179Z,78.25
2022-11-25T01:09:57.181Z,77.45
2022-11-25T01:11:02.023Z,80.65
2022-11-25T01:12:05.455Z,77.60
2022-11-25T01:13:08.113Z,75.72
2022-11-25T01:14:11.688Z,73.50
2022-11-25T01:15:14.356Z,86.70
2022-11-25T01:16:21.012Z,77.55
2022-11-25T01:17:23.721Z,76.03
2022-11-25T01:18:30.627Z,93.88
2022-11-25T01:19:33.524Z,81.40
2022-11-25T01:20:36.242Z,81.97
2022-11-25T01:21:38.962Z,87.63
2022-11-25T01:22:41.659Z,87.53
2022-11-25T01:23:44.808Z,87.22
2022-11-25T01:24:49.057Z,80.32
2022-11-25T01:25:51.940Z,78.57
2022-11-25T01:26:56.059Z,84.85
2022-11-25T01:27:58.794Z,81.43
2022-11-25T01:29:05.216Z,81.65
2022-11-25T01:30:10.147Z,85.10
2022-11-25T01:31:18.214Z,83.75
2022-11-25T01:32:20.917Z,78.18
2022-11-25T01:33:24.778Z,92.15
2022-11-25T01:34:28.223Z,82.53
2022-11-25T01:35:32.951Z,85.80
2022-11-25T01:36:35.955Z,85.13
2022-11-25T01:37:38.875Z,83.32
2022-11-25T01:38:41.848Z,86.35
2022-11-25T01:39:44.550Z,96.07
2022-11-25T01:40:47.401Z,94.43
2022-11-25T01:41:50.418Z,88.22
2022-11-25T01:42:53.131Z,79.55
2022-11-25T01:44:05.779Z,82.88
2022-11-25T01:45:27.881Z,97.63
2022-11-25T01:46:51.578Z,84.05
2022-11-25T01:47:57.133Z,87.13
2022-11-25T01:49:02.829Z,100.65
2022-11-25T01:50:06.551Z,85.68
2022-11-25T01:51:30.346Z,94.93
2022-11-25T01:52:39.611Z,92.82
2022-11-25T01:53:42.301Z,75.95
2022-11-25T01:54:57.425Z,89.10
2022-11-25T01:56:02.807Z,82.35
2022-11-25T01:57:11.165Z,91.85
2022-11-25T01:58:24.694Z,94.85
2022-11-25T01:59:30.474Z,98.13
2022-11-25T02:00:33.336Z,89.10
2022-11-25T02:01:36.133Z,93.47
2022-11-25T02:02:39.161Z,91.55
2022-11-25T02:03:44.624Z,91.55
2022-11-25T02:04:49.225Z,91.25
2022-11-25T02:05:57.984Z,95.15
2022-11-25T02:07:07.589Z,78.30
2022-11-25T02:08:10.986Z,91.70
2022-11-25T02:09:14.887Z,85.80
2022-11-25T02:10:24.368Z,94.82
2022-11-25T02:11:28.936Z,99.78
2022-11-25T02:12:32.305Z,84.15
2022-11-25T02:13:35.868Z,95.25
2022-11-25T02:14:39.037Z,87.35
2022-11-25T02:15:41.820Z,89.10
2022-11-25T02:16:44.626Z,86.68
2022-11-25T02:17:47.564Z,95.63
2022-11-25T02:18:50.688Z,87.88
2022-11-25T02:20:05.245Z,82.78
2022-11-25T02:21:08.703Z,86.68
2022-11-25T02:22:27.375Z,88.25
2022-11-25T02:23:58.881Z,88.70
2022-11-25T02:25:14.765Z,88.95
2022-11-25T02:26:17.768Z,79.72
2022-11-25T02:27:20.580Z,85.63
2022-11-25T02:28:26.833Z,87.68
2022-11-25T02:29:29.681Z,85.13
2022-11-25T02:30:33.317Z,79.15
2022-11-25T02:31:36.048Z,79.47
2022-11-25T02:32:46.820Z,83.68
2022-11-25T02:34:52.453Z,86.32
2022-11-25T02:35:55.493Z,90.53
2022-11-25T02:36:59.639Z,87.93
2022-11-25T02:38:30.789Z,90.45
2022-11-25T02:40:47.669Z,93.35
2022-11-25T02:41:55.859Z,81.07
2022-11-25T02:43:00.255Z,86.40
2022-11-25T02:44:03.892Z,86.43
2022-11-25T02:45:10.466Z,89.47
2022-11-25T02:46:21.805Z,96.30
2022-11-25T02:47:25.221Z,80.53
2022-11-25T02:48:52.857Z,94.97
2022-11-25T02:49:52.450Z,86.03
2022-11-25T02:50:55.236Z,78.75
2022-11-25T02:51:57.850Z,96.05
2022-11-25T02:53:01.864Z,93.13
2022-11-25T02:54:04.739Z,85.07
2022-11-25T02:55:07.753Z,86.63
2022-11-25T02:56:12.606Z,96.25
2022-11-25T02:57:15.270Z,85.40
2022-11-25T02:58:18.585Z,93.32
2022-11-25T02:59:21.313Z,91.60
2022-11-25T03:00:24.385Z,90.88
2022-11-25T03:01:28.224Z,90.25
2022-11-25T03:02:30.995Z,92.13
2022-11-25T03:03:33.694Z,81.93
2022-11-25T03:04:38.893Z,85.13
2022-11-25T03:05:41.691Z,88.50
2022-11-25T03:06:44.358Z,88.80
2022-11-25T03:07:47.025Z,95.55
2022-11-25T03:08:51.857Z,84.53
2022-11-25T03:09:54.475Z,85.30
2022-11-25T03:10:57.072Z,96.03
2022-11-25T03:12:17.995Z,91.10
2022-11-25T03:13:20.804Z,89.47
2022-11-25T03:14:24.021Z,95.57
2022-11-25T03:15:26.674Z,89.93
2022-11-25T03:16:29.426Z,85.32
2022-11-25T03:17:32.569Z,99.80
2022-11-25T03:18:35.309Z,92.65
2022-11-25T03:19:37.992Z,92.72
2022-11-25T03:20:40.894Z,78.07
2022-11-25T03:21:43.523Z,96.82
2022-11-25T03:22:46.711Z,93.10
2022-11-25T03:23:49.318Z,93.82
2022-11-25T03:24:53.269Z,82.07
2022-11-25T03:25:56.322Z,87.65
2022-11-25T03:26:59.504Z,92.78
2022-11-25T03:28:02.200Z,90.82
2022-11-25T03:29:05.116Z,96.75
2022-11-25T03:30:15.754Z,87.97
2022-11-25T03:31:19.357Z,83.65
2022-11-25T03:32:22.242Z,90.68
2022-11-25T03:33:24.920Z,84.82
2022-11-25T03:34:27.634Z,93.03
2022-11-25T03:35:30.458Z,86.55
2022-11-25T03:36:33.170Z,77.35
2022-11-25T03:37:36.645Z,86.57
2022-11-25T03:38:39.403Z,85.55
2022-11-25T03:39:42.721Z,91.57
2022-11-25T03:40:47.516Z,88.30
2022-11-25T03:41:50.478Z,98.00
2022-11-25T03:42:54.221Z,86.43
2022-11-25T03:43:56.911Z,87.95
2022-11-25T03:44:59.689Z,89.28
2022-11-25T03:46:02.507Z,95.22
2022-11-25T03:47:05.283Z,79.88
2022-11-25T03:48:08.361Z,86.97
2022-11-25T03:49:12.869Z,84.57
2022-11-25T03:50:16.182Z,85.38
2022-11-25T03:51:20.418Z,83.88
2022-11-25T03:52:24.734Z,75.25
2022-11-25T03:53:27.459Z,84.10
2022-11-25T03:54:30.371Z,92.97
2022-11-25T03:55:52.703Z,91.70
2022-11-25T03:56:57.771Z,81.80
2022-11-25T03:58:00.509Z,91.80
2022-11-25T03:59:03.508Z,89.28
2022-11-25T04:00:07.594Z,91.90
2022-11-25T04:01:20.525Z,100.13
2022-11-25T04:02:23.365Z,86.97
2022-11-25T04:03:26.377Z,103.15
2022-11-25T04:04:29.053Z,98.63
2022-11-25T04:05:31.732Z,103.45
2022-11-25T04:06:39.427Z,90.15
2022-11-25T04:07:42.142Z,97.05
2022-11-25T04:08:44.871Z,95.47
2022-11-25T04:09:48.633Z,90.45
2022-11-25T04:10:54.733Z,94.22
2022-11-25T04:12:19.230Z,98.55
2022-11-25T04:13:29.754Z,85.70
2022-11-25T04:14:33.245Z,105.97
2022-11-25T04:15:36.112Z,96.90
2022-11-25T04:16:38.914Z,99.10
2022-11-25T04:17:41.996Z,93.20
2022-11-25T04:18:44.690Z,86.40
2022-11-25T04:19:47.467Z,81.75
2022-11-25T04:20:50.300Z,95.32
2022-11-25T04:21:53.339Z,101.03
2022-11-25T04:22:56.152Z,99.72
2022-11-25T04:23:59.181Z,88.88
2022-11-25T04:25:01.987Z,107.78
2022-11-25T04:26:05.159Z,98.68
2022-11-25T04:27:12.771Z,98.90
2022-11-25T04:28:16.646Z,86.88
2022-11-25T04:29:20.109Z,92.97
2022-11-25T04:30:24.368Z,92.85
2022-11-25T04:31:28.067Z,112.50
2022-11-25T04:32:30.765Z,96.65
2022-11-25T04:33:34.205Z,97.15
2022-11-25T04:34:37.446Z,97.50
2022-11-25T04:35:40.248Z,84.45
2022-11-25T04:36:44.199Z,81.45
2022-11-25T04:37:47.211Z,98.90
2022-11-25T04:38:50.336Z,93.90
2022-11-25T04:39:53.937Z,101.57
2022-11-25T04:40:56.837Z,75.72
2022-11-25T04:42:17.938Z,101.20
2022-11-25T04:44:32.720Z,89.97
2022-11-25T04:45:51.860Z,78.55
2022-11-25T04:46:57.978Z,86.22
2022-11-25T04:48:00.806Z,93.13
2022-11-25T04:49:04.706Z,96.30
2022-11-25T04:50:12.967Z,85.53
2022-11-25T04:51:24.885Z,95.10
2022-11-25T04:52:33.810Z,80.75
2022-11-25T04:53:36.453Z,85.38
2022-11-25T04:54:39.497Z,80.20
2022-11-25T04:55:42.428Z,92.60
2022-11-25T04:56:50.445Z,78.30
2022-11-25T04:57:54.386Z,81.43
2022-11-25T04:59:15.808Z,84.35
2022-11-25T05:00:23.089Z,84.53
2022-11-25T05:01:25.880Z,96.32
2022-11-25T05:02:33.075Z,87.68
2022-11-25T05:03:48.779Z,105.20
2022-11-25T05:04:55.507Z,98.05
2022-11-25T05:05:59.254Z,108.38
2022-11-25T05:07:02.673Z,92.78
2022-11-25T05:08:05.919Z,97.15
2022-11-25T05:09:11.009Z,90.30
2022-11-25T05:10:15.367Z,115.28
2022-11-25T05:11:21.912Z,99.43
2022-11-25T05:12:28.388Z,96.88
2022-11-25T05:13:31.206Z,116.20
2022-11-25T05:14:35.840Z,93.90
2022-11-25T05:15:38.792Z,99.80
2022-11-25T05:16:43.779Z,103.65
2022-11-25T05:17:47.350Z,102.07
2022-11-25T05:18:56.169Z,99.32
2022-11-25T05:20:00.444Z,95.70
2022-11-25T05:21:05.528Z,101.10
2022-11-25T05:22:13.827Z,94.35
2022-11-25T05:23:17.307Z,89.70
2022-11-25T05:24:20.067Z,86.47
2022-11-25T05:25:26.810Z,77.60
2022-11-25T05:27:01.261Z,80.25
2022-11-25T05:28:04.921Z,83.25
2022-11-25T05:29:07.606Z,79.78
2022-11-25T05:30:11.242Z,88.15
2022-11-25T05:31:14.202Z,89.38
2022-11-25T05:32:17.422Z,73.50
2022-11-25T05:33:20.138Z,87.75
2022-11-25T05:34:23.324Z,87.63
2022-11-25T05:35:25.961Z,80.18
2022-11-25T05:36:29.276Z,78.53
2022-11-25T05:37:32.141Z,74.68
2022-11-25T05:38:39.671Z,77.53
2022-11-25T05:39:42.740Z,64.28
2022-11-25T05:41:01.944Z,62.58
2022-11-25T05:42:05.415Z,56.72
2022-11-25T05:43:08.013Z,67.22
2022-11-25T05:44:12.641Z,62.55
2022-11-25T05:45:15.308Z,67.82
2022-11-25T05:46:18.609Z,65.28
2022-11-25T05:47:26.244Z,65.68
2022-11-25T05:48:29.048Z,61.70
2022-11-25T05:49:31.995Z,71.53
2022-11-25T05:50:34.663Z,81.10
2022-11-25T05:51:39.282Z,66.85
2022-11-25T05:52:41.986Z,65.30
2022-11-25T05:53:44.560Z,62.90
2022-11-25T05:54:47.333Z,62.75
2022-11-25T05:55:57.816Z,63.47
2022-11-25T05:57:23.373Z,58.97
2022-11-25T05:58:31.085Z,62.17
2022-11-25T05:59:35.469Z,57.47
2022-11-25T06:00:45.751Z,63.55
2022-11-25T06:01:49.992Z,66.85
2022-11-25T06:02:53.076Z,54.20
2022-11-25T06:04:00.987Z,61.33
2022-11-25T06:05:05.041Z,65.03
2022-11-25T06:06:08.311Z,72.90
2022-11-25T06:07:10.942Z,65.88
2022-11-25T06:08:14.904Z,65.25
2022-11-25T06:09:17.621Z,63.13
2022-11-25T06:10:20.882Z,66.25
2022-11-25T06:11:25.662Z,65.15
2022-11-25T06:12:28.414Z,57.92
2022-11-25T06:13:31.018Z,61.55
2022-11-25T06:14:33.954Z,59.63
2022-11-25T06:15:42.318Z,61.30
2022-11-25T06:16:45.824Z,67.07
2022-11-25T06:18:16.779Z,52.13
2022-11-25T06:19:19.616Z,51.90
2022-11-25T06:20:22.527Z,56.70
2022-11-25T06:21:25.130Z,62.35
2022-11-25T06:22:27.937Z,59.70
2022-11-25T06:23:31.528Z,54.45
2022-11-25T06:24:34.693Z,58.55
2022-11-25T06:25:41.687Z,61.45
2022-11-25T06:26:44.370Z,67.22
2022-11-25T06:28:11.391Z,58.53
2022-11-25T06:29:10.554Z,63.88
2022-11-25T06:30:15.475Z,57.90
2022-11-25T06:31:25.284Z,58.03
2022-11-25T06:32:40.490Z,61.08
2022-11-25T06:33:54.864Z,61.00
2022-11-25T06:34:57.491Z,60.92
2022-11-25T06:36:08.272Z,54.53
2022-11-25T06:37:10.922Z,52.28
2022-11-25T06:38:13.554Z,57.63
2022-11-25T06:39:16.207Z,55.78
2022-11-25T06:40:19.112Z,66.03
2022-11-25T06:41:22.784Z,58.30
2022-11-25T06:42:25.452Z,56.92
2022-11-25T06:43:28.063Z,62.20
2022-11-25T06:44:30.701Z,63.22
2022-11-25T06:45:34.047Z,61.45
2022-11-25T06:46:36.839Z,63.05
2022-11-25T06:47:39.909Z,63.45
2022-11-25T06:48:42.535Z,56.70
2022-11-25T06:49:45.331Z,60.47
2022-11-25T06:50:56.882Z,60.47
2022-11-25T06:51:59.459Z,59.03
2022-11-25T06:53:02.537Z,60.42
2022-11-25T06:54:05.201Z,57.65
2022-11-25T06:55:08.213Z,67.05
2022-11-25T06:56:19.303Z,62.35
2022-11-25T06:57:22.032Z,59.50
2022-11-25T06:58:35.499Z,53.38
2022-11-25T06:59:38.895Z,65.45
2022-11-25T07:00:41.510Z,53.70
2022-11-25T07:01:44.412Z,63.60
2022-11-25T07:02:48.917Z,55.38
2022-11-25T07:03:58.955Z,66.53
2022-11-25T07:05:01.620Z,64.07
2022-11-25T07:06:04.587Z,58.47
2022-11-25T07:07:07.535Z,65.53
2022-11-25T07:08:10.179Z,59.33
2022-11-25T07:09:12.883Z,57.10
2022-11-25T07:10:15.570Z,63.72
2022-11-25T07:11:23.473Z,54.97
2022-11-25T07:12:26.228Z,58.85
2022-11-25T07:13:28.865Z,53.10
2022-11-25T07:14:31.476Z,55.97
2022-11-25T07:15:34.968Z,64.20
2022-11-25T07:16:39.154Z,53.92
2022-11-25T07:17:42.005Z,65.80
2022-11-25T07:18:44.914Z,72.53
2022-11-25T07:19:47.586Z,65.65
2022-11-25T07:20:50.362Z,66.63
2022-11-25T07:21:53.093Z,53.22
2022-11-25T07:22:55.733Z,65.60
2022-11-25T07:24:02.566Z,57.05
2022-11-25T07:25:05.944Z,64.65
2022-11-25T07:26:10.794Z,56.92
2022-11-25T07:27:13.411Z,58.33
2022-11-25T07:28:16.018Z,61.65
2022-11-25T07:32:10.451Z,67.32
2022-11-25T07:33:13.380Z,62.25
2022-11-25T07:34:20.106Z,61.80
2022-11-25T07:35:23.062Z,70.43
2022-11-25T07:36:26.847Z,61.88
2022-11-25T07:37:30.889Z,62.42
2022-11-25T07:38:33.998Z,57.05
2022-11-25T07:39:37.094Z,59.90
2022-11-25T07:40:39.935Z,68.15
2022-11-25T07:41:43.081Z,60.80
2022-11-25T07:42:45.737Z,67.38
2022-11-25T07:43:53.130Z,69.22
2022-11-25T07:44:58.575Z,71.85
2022-11-25T07:46:29.425Z,67.70
2022-11-25T07:47:35.148Z,65.25
2022-11-25T07:48:37.925Z,66.80
2022-11-25T07:49:40.593Z,58.40
2022-11-25T07:50:43.263Z,58.53
2022-11-25T07:51:51.205Z,59.78
2022-11-25T07:52:54.086Z,60.97
2022-11-25T07:53:58.278Z,63.95
2022-11-25T07:55:01.127Z,61.67
2022-11-25T07:56:04.030Z,67.25
2022-11-25T07:57:06.859Z,60.10
2022-11-25T07:58:09.531Z,56.33
2022-11-25T07:59:15.331Z,58.00
2022-11-25T08:00:18.399Z,61.47
2022-11-25T08:01:21.483Z,61.75
2022-11-25T08:02:24.227Z,57.35
2022-11-25T08:03:26.940Z,71.10
2022-11-25T08:04:29.607Z,56.35
2022-11-25T08:05:33.482Z,66.50
2022-11-25T08:06:39.265Z,65.25
2022-11-25T08:07:41.998Z,50.47
2022-11-25T08:08:45.320Z,62.55
2022-11-25T08:09:48.075Z,65.35
2022-11-25T08:10:50.863Z,57.33
2022-11-25T08:11:53.819Z,63.25
2022-11-25T08:12:56.598Z,62.20
2022-11-25T08:13:59.607Z,59.85
2022-11-25T08:15:02.387Z,54.67
2022-11-25T08:16:06.312Z,57.45
2022-11-25T08:17:09.030Z,57.03
2022-11-25T08:18:12.004Z,61.67
2022-11-25T08:19:17.325Z,55.15
2022-11-25T08:20:20.048Z,56.42
2022-11-25T08:21:22.895Z,53.92
2022-11-25T08:22:25.546Z,50.70
2022-11-25T08:23:28.254Z,49.75
2022-11-25T08:24:30.914Z,50.88
2022-11-25T08:25:33.580Z,54.20
2022-11-25T08:26:37.718Z,53.00
2022-11-25T08:27:41.364Z,61.00
2022-11-25T08:28:43.987Z,57.75
2022-11-25T08:29:46.624Z,64.75
2022-11-25T08:30:49.593Z,52.22
2022-11-25T08:31:52.924Z,61.35
2022-11-25T08:32:55.553Z,66.28
2022-11-25T08:33:59.086Z,57.63
2022-11-25T08:35:01.729Z,53.35
2022-11-25T08:36:05.743Z,54.22
2022-11-25T08:37:09.055Z,56.35
2022-11-25T08:38:12.092Z,56.15
2022-11-25T08:39:36.284Z,60.90
2022-11-25T08:40:38.148Z,54.15
2022-11-25T08:41:40.851Z,54.90
2022-11-25T08:42:43.510Z,58.85
2022-11-25T08:43:46.868Z,62.28
2022-11-25T08:44:56.143Z,58.90
2022-11-25T08:45:58.761Z,55.10
2022-11-25T08:47:01.530Z,65.22
2022-11-25T08:48:04.436Z,58.88
2022-11-25T08:49:09.450Z,57.15
2022-11-25T08:50:14.651Z,65.95
2022-11-25T08:51:19.871Z,59.72
2022-11-25T08:52:23.023Z,71.15
2022-11-25T08:53:25.773Z,69.97
2022-11-25T08:54:28.533Z,59.92
2022-11-25T08:55:32.778Z,61.55
2022-11-25T08:56:36.042Z,62.72
2022-11-25T08:57:38.643Z,62.17
2022-11-25T08:58:41.271Z,59.97
2022-11-25T08:59:44.021Z,57.13
2022-11-25T09:00:46.607Z,55.20
2022-11-25T09:01:49.348Z,60.75
2022-11-25T09:02:52.088Z,52.05
2022-11-25T09:03:56.309Z,59.20
2022-11-25T09:04:59.016Z,55.42
2022-11-25T09:06:02.145Z,51.42
2022-11-25T09:07:05.416Z,65.78
2022-11-25T09:08:09.441Z,53.65
2022-11-25T09:09:12.127Z,58.72
2022-11-25T09:10:17.039Z,57.60
2022-11-25T09:11:19.904Z,63.35
2022-11-25T09:12:22.660Z,57.92
2022-11-25T09:13:25.412Z,58.92
2022-11-25T09:14:28.108Z,60.67
2022-11-25T09:15:31.607Z,58.00
2022-11-25T09:16:34.450Z,60.80
2022-11-25T09:17:37.471Z,59.55
2022-11-25T09:18:40.155Z,63.53
2022-11-25T09:19:42.769Z,57.20
2022-11-25T09:20:46.053Z,59.58
2022-11-25T09:21:48.854Z,66.55
2022-11-25T09:22:51.548Z,55.60
2022-11-25T09:23:54.864Z,54.95
2022-11-25T09:24:57.682Z,69.45
2022-11-25T09:26:00.367Z,53.55
2022-11-25T09:27:03.438Z,61.05
2022-11-25T09:28:06.193Z,58.78
2022-11-25T09:29:08.980Z,60.05
2022-11-25T09:30:12.171Z,49.10
2022-11-25T09:31:14.924Z,48.33
2022-11-25T09:32:17.560Z,62.08
2022-11-25T09:33:21.177Z,58.80
2022-11-25T09:34:24.529Z,55.05
2022-11-25T09:35:27.712Z,55.35
2022-11-25T09:36:30.427Z,51.75
2022-11-25T09:37:33.090Z,53.97
2022-11-25T09:38:42.781Z,54.13
2022-11-25T09:39:45.892Z,55.67
2022-11-25T09:40:52.979Z,55.08
2022-11-25T09:42:37.381Z,54.95
2022-11-25T09:44:01.353Z,60.72
2022-11-25T09:45:36.178Z,64.60
2022-11-25T09:46:56.646Z,67.85
2022-11-25T09:48:30.526Z,53.75
2022-11-25T09:49:56.030Z,65.10
2022-11-25T09:51:19.202Z,57.78
2022-11-25T09:52:43.214Z,60.78
2022-11-25T09:53:56.871Z,61.17
2022-11-25T09:55:24.194Z,62.97
2022-11-25T09:56:35.499Z,58.70
2022-11-25T09:58:02.952Z,57.25
2022-11-25T09:59:43.045Z,60.20
2022-11-25T10:00:48.272Z,58.55
2022-11-25T10:02:01.961Z,57.42
2022-11-25T10:03:45.484Z,54.13
2022-11-25T10:04:55.547Z,52.65
2022-11-25T10:06:08.230Z,54.22
2022-11-25T10:07:18.575Z,56.42
2022-11-25T10:08:24.311Z,56.33
2022-11-25T10:09:30.482Z,59.22
2022-11-25T10:10:45.182Z,59.55
2022-11-25T10:11:54.050Z,54.70
2022-11-25T10:12:58.736Z,52.90
2022-11-25T10:14:03.850Z,63.25
2022-11-25T10:15:18.959Z,61.47
2022-11-25T10:16:30.185Z,58.63
2022-11-25T10:17:44.466Z,56.70
2022-11-25T10:18:56.638Z,56.60
2022-11-25T10:19:59.231Z,53.53
2022-11-25T10:21:01.974Z,50.92
2022-11-25T10:22:24.973Z,61.22
2022-11-25T10:23:38.398Z,48.45
2022-11-25T10:24:41.467Z,63.33
2022-11-25T10:25:48.951Z,60.65
2022-11-25T10:27:06.087Z,67.72
2022-11-25T10:28:22.986Z,60.25
2022-11-25T10:29:28.479Z,61.80
2022-11-25T10:30:56.161Z,51.90
2022-11-25T10:32:19.745Z,54.10
2022-11-25T10:33:26.719Z,54.20
2022-11-25T10:34:36.322Z,55.10
2022-11-25T10:35:43.961Z,62.78
2022-11-25T10:36:49.160Z,57.80
2022-11-25T10:37:55.246Z,58.25
2022-11-25T10:39:24.574Z,56.80
2022-11-25T10:40:27.316Z,55.50
2022-11-25T10:41:37.496Z,55.28
2022-11-25T10:42:40.128Z,54.75
2022-11-25T10:43:46.157Z,54.45
2022-11-25T10:44:49.047Z,53.03
2022-11-25T10:46:49.666Z,54.15
2022-11-25T10:48:02.089Z,59.22
2022-11-25T10:49:30.601Z,48.80
2022-11-25T10:50:52.827Z,58.85
2022-11-25T10:51:57.511Z,54.45
2022-11-25T10:53:13.648Z,67.30
2022-11-25T10:54:27.312Z,59.03
2022-11-25T10:55:33.376Z,63.63
2022-11-25T10:56:50.424Z,67.00
2022-11-25T10:57:53.965Z,53.40
2022-11-25T10:58:56.622Z,62.42
2022-11-25T11:00:00.264Z,61.42
2022-11-25T11:01:07.229Z,61.45
2022-11-25T11:02:35.929Z,58.28
2022-11-25T11:03:38.671Z,61.53
2022-11-25T11:05:01.025Z,70.40
2022-11-25T11:06:03.728Z,56.70
2022-11-25T11:07:09.622Z,61.00
2022-11-25T11:08:12.236Z,57.17
2022-11-25T11:09:33.893Z,62.85
2022-11-25T11:10:37.006Z,56.13
2022-11-25T11:11:49.779Z,61.85
2022-11-25T11:13:25.234Z,66.57
2022-11-25T11:14:30.004Z,61.47
2022-11-25T11:15:45.396Z,63.42
2022-11-25T11:16:57.472Z,74.88
2022-11-25T11:18:34.642Z,58.58
2022-11-25T11:19:37.438Z,66.20
2022-11-25T11:20:46.883Z,61.85
2022-11-25T11:21:50.332Z,65.22
2022-11-25T11:22:58.428Z,56.10
2022-11-25T11:24:02.023Z,66.57
2022-11-25T11:25:29.627Z,57.25
2022-11-25T11:26:34.287Z,60.00
2022-11-25T11:27:38.517Z,59.38
2022-11-25T11:28:41.758Z,63.33
2022-11-25T11:29:44.418Z,70.38
2022-11-25T11:30:59.108Z,61.35
2022-11-25T11:32:06.810Z,72.22
2022-11-25T11:33:43.864Z,62.55
2022-11-25T11:35:04.270Z,72.03
2022-11-25T11:36:16.778Z,69.03
2022-11-25T11:37:47.722Z,56.55
2022-11-25T11:39:22.152Z,74.32
2022-11-25T11:40:40.051Z,62.70
2022-11-25T11:41:55.288Z,65.10
2022-11-25T11:43:09.554Z,75.32
2022-11-25T11:44:41.922Z,68.63
2022-11-25T11:46:02.866Z,66.25
2022-11-25T11:48:41.526Z,63.45
2022-11-25T11:49:47.114Z,55.63
2022-11-25T11:50:53.632Z,53.72
2022-11-25T11:52:10.439Z,62.90
2022-11-25T11:53:35.548Z,68.75
2022-11-25T11:54:46.108Z,65.30
2022-11-25T11:56:32.862Z,60.85
2022-11-25T11:57:44.714Z,63.53
2022-11-25T11:59:04.308Z,63.72
2022-11-25T12:00:29.147Z,57.38
2022-11-25T12:01:47.970Z,59.83
2022-11-25T12:03:14.844Z,63.38
2022-11-25T12:04:31.136Z,61.05
2022-11-25T12:05:35.204Z,65.97
2022-11-25T12:06:38.933Z,55.50
2022-11-25T12:07:53.015Z,67.18
2022-11-25T12:09:03.781Z,64.05
2022-11-25T12:10:16.038Z,65.68
2022-11-25T12:11:21.730Z,64.35
2022-11-25T12:12:35.145Z,61.72
2022-11-25T12:13:49.498Z,65.35
2022-11-25T12:15:01.499Z,66.75
2022-11-25T12:16:10.263Z,57.00
2022-11-25T12:17:28.916Z,60.65
2022-11-25T12:18:47.713Z,63.45
2022-11-25T12:20:19.431Z,60.50
2022-11-25T12:21:48.949Z,62.25
2022-11-25T12:23:40.379Z,67.38
2022-11-25T12:24:54.300Z,59.95
2022-11-25T12:26:03.221Z,58.80
2022-11-25T12:27:11.872Z,65.25
2022-11-25T12:28:17.677Z,60.67
2022-11-25T12:29:41.701Z,68.57
2022-11-25T12:31:06.649Z,67.22
2022-11-25T12:32:38.079Z,57.03
2022-11-25T12:33:43.943Z,59.17
2022-11-25T12:34:54.317Z,59.00
2022-11-25T12:36:04.767Z,55.75
2022-11-25T12:37:16.473Z,59.95
2022-11-25T12:38:28.296Z,66.10
2022-11-25T12:39:52.411Z,64.53
2022-11-25T12:41:16.240Z,61.25
2022-11-25T12:42:24.371Z,63.90
2022-11-25T12:43:56.147Z,64.03
2022-11-25T12:45:06.044Z,59.63
2022-11-25T12:46:34.597Z,64.57
2022-11-25T12:47:37.322Z,71.30
2022-11-25T12:48:41.476Z,65.22
2022-11-25T12:49:46.601Z,64.90
2022-11-25T12:51:13.168Z,63.45
2022-11-25T12:52:54.540Z,63.17
2022-11-25T12:54:11.386Z,62.15
2022-11-25T12:55:24.072Z,59.95
2022-11-25T12:56:57.383Z,59.08
2022-11-25T12:58:37.125Z,61.75
2022-11-25T13:00:39.148Z,58.38
2022-11-25T13:02:11.568Z,65.05
2022-11-25T13:03:32.757Z,60.30
2022-11-25T13:04:46.962Z,72.22
2022-11-25T13:06:13.781Z,70.80
2022-11-25T13:07:24.968Z,67.35
2022-11-25T13:09:06.150Z,69.57
2022-11-25T13:10:32.894Z,60.28
2022-11-25T13:11:35.858Z,65.60
2022-11-25T13:13:05.044Z,74.82
2022-11-25T13:14:24.100Z,69.20
2022-11-25T13:15:38.225Z,67.70
2022-11-25T13:16:43.259Z,67.47
2022-11-25T13:17:48.467Z,64.45
2022-11-25T13:18:51.539Z,58.75
2022-11-25T13:20:28.920Z,62.63
2022-11-25T13:21:31.615Z,72.70
2022-11-25T13:22:34.325Z,72.95
2022-11-25T13:23:52.912Z,72.88
2022-11-25T13:24:57.705Z,68.95
2022-11-25T13:26:29.036Z,60.55
2022-11-25T13:27:40.284Z,65.63
2022-11-25T13:28:43.003Z,59.05
2022-11-25T13:29:55.211Z,60.08
2022-11-25T13:31:17.502Z,63.70
2022-11-25T13:32:32.075Z,71.75
2022-11-25T13:33:43.564Z,66.25
2022-11-25T13:34:46.332Z,64.50
2022-11-25T13:35:51.745Z,68.53
2022-11-25T13:36:56.152Z,68.40
2022-11-25T13:37:58.911Z,62.28
2022-11-25T13:39:06.416Z,62.20
2022-11-25T13:40:25.463Z,66.85
2022-11-25T13:41:42.692Z,67.03
2022-11-25T13:42:45.397Z,60.28
2022-11-25T13:44:14.092Z,68.03
2022-11-25T13:45:37.515Z,59.83
2022-11-25T13:46:58.390Z,60.70
2022-11-25T13:48:16.466Z,66.00
2022-11-25T13:49:30.489Z,71.60
2022-11-25T13:51:03.023Z,71.18
2022-11-25T13:52:05.044Z,71.88
2022-11-25T13:53:32.589Z,68.60
2022-11-25T13:54:46.340Z,61.22
2022-11-25T13:55:50.458Z,61.65
2022-11-25T13:57:28.932Z,65.40
2022-11-25T13:58:35.962Z,59.53
2022-11-25T13:59:50.890Z,63.47
2022-11-25T14:00:59.801Z,59.22
2022-11-25T14:02:27.656Z,57.70
2022-11-25T14:03:30.549Z,65.78
2022-11-25T14:05:09.282Z,72.68
2022-11-25T14:06:36.442Z,59.53
2022-11-25T14:07:45.242Z,64.13
2022-11-25T14:09:04.067Z,68.70
2022-11-25T14:10:20.861Z,70.00
2022-11-25T14:11:51.982Z,71.95
2022-11-25T14:15:48.805Z,59.22
2022-11-25T14:17:28.955Z,57.65
2022-11-25T14:20:30.853Z,55.35
2022-11-25T14:21:45.460Z,64.30
2022-11-25T14:22:56.810Z,60.83
2022-11-25T14:24:25.379Z,62.47
2022-11-25T14:25:31.116Z,62.20
2022-11-25T14:26:55.890Z,59.30
2022-11-25T14:28:15.008Z,63.95
2022-11-25T14:29:22.334Z,57.47
2022-11-25T14:30:25.730Z,56.58
2022-11-25T14:31:37.266Z,67.40
2022-11-25T14:33:01.148Z,58.67
2022-11-25T14:34:18.016Z,56.55
2022-11-25T14:35:23.360Z,54.65
2022-11-25T14:36:37.137Z,61.35
2022-11-25T14:38:11.155Z,62.38
2022-11-25T14:39:23.257Z,58.05
2022-11-25T14:40:31.969Z,57.47
2022-11-25T14:41:44.151Z,58.38
2022-11-25T14:42:49.742Z,59.80
2022-11-25T14:44:01.033Z,62.65
2022-11-25T14:45:04.110Z,63.55
2022-11-25T14:46:20.999Z,59.97
2022-11-25T14:47:25.776Z,51.78
2022-11-25T14:48:28.409Z,62.45
2022-11-25T14:50:05.319Z,61.00
2022-11-25T14:51:18.645Z,57.72
2022-11-25T14:52:25.413Z,76.90